Palm Springs International Airport
KPSP : now visible

Airfield :











YOU CAN JOIN US ON...

 
LOGIN :

Register | Disclaimer

   EN    FR    IT 

 









Legend :    VFR   Marginal VFR   IFR   Intensive IFR   Very Intensive IFR
Visi :
Ceiling :
>= 8 km
>= 3000ft
5 to 8 km
1000 to 3000 ft
1500m to 5 km
500 to 1000 ft
800 to 1500m
200 to 500 ft
< 800m
< 200 ft
Symbols :   Thunderstorms  Fog  Heavy snow  Heavy precipitations  Wind > 20 kt






- Airport Elevation : 477 ft
- IATA code : PSP


KPSP - Palm Springs International

CURRENT METAR :
  • 022353Z 32015KT 10SM CLR 26/07 A2982 RMK AO2 PK WND 32026/2302 SLP096 T02610072 10272 20233 56008

EXPIRED METARs :
  • 022253Z 32017KT 10SM CLR 27/07 A2983 RMK AO2 PK WND 32026/2202 SLP098 T02670072
  • 022153Z 32019G25KT 10SM CLR 27/07 A2984 RMK AO2 PK WND 30026/2135 SLP102 T02670072

TAF KPSP
Valid from the 03 at 00:00 until the 04 at 00:00 UTC


022331Z 0300/0324 33012G20KT P6SM SKC
FM031100 32007KT P6SM SKC



MET'MAP, your aeronautical weather chart ! - Copyright ORBIFLY December 2007 - Disclaimer

ORBIFLY MET'MAP TEAM :

Programming & Development : Alexandra Zaïnal
Concept & original design : Baudouin d'Aumeries
Assistance for programming : Marc-Olivier Méhu
Technical & hardware support : Manuel Goepfert

Contact : metmap@orbifly.com




SOURCES & CREDITS :

   NOAA       Earth
Advisory